Volcan Del Teide — EAIE — position and weather

sailwx.info

Track history (hours):
 
Tides and Currents Weather Stations Pressure Air Temp Water Temp Dewpoint Dewpoint Depression Visibility Wind Speed Wind Dir Waves Ship Positions

Volcan Del Teide

Last reported at 2017-Sep-25 19:00 UTC. Time now 2017-Sep-25 19:14 UTC.
Position N 28°10' W 015°24'.

Length 175 m; draft 6.5 m.

Type: Passenger vessel. MMSI: 225416000.

Date/timePositionNaut miles runAvg speedWind from/ knotsBaromVisibWave heightAir tempDewpointWater temp
2017-Sep-25 19:00N 28°10' W 015°24'0 0.0
2017-Sep-25 18:30N 28°10' W 015°24'0 0.0
2017-Sep-25 18:00N 28°10' W 015°24'1 1.4
2017-Sep-25 17:30N 28°09' W 015°24'918.7
2017-Sep-25 17:01N 28°14' W 015°32'1223.2
2017-Sep-25 16:30N 28°19' W 015°45'1123.0
2017-Sep-25 16:00N 28°23' W 015°57'1223.3
2017-Sep-25 15:30N 28°27' W 016°09'510.0
2017-Sep-25 15:00N 28°28' W 016°15'0 0.0
2017-Sep-25 14:31N 28°28' W 016°15'0 0.0
2017-Sep-25 14:00N 28°28' W 016°15'0 0.0
2017-Sep-25 13:30N 28°28' W 016°15'0 0.0
2017-Sep-25 13:00N 28°28' W 016°15'0 0.0
2017-Sep-25 12:30N 28°28' W 016°15'0 0.0
2017-Sep-25 12:00N 28°28' W 016°15'0 0.0
2017-Sep-25 11:30N 28°28' W 016°15'0 0.0
2017-Sep-25 11:00N 28°28' W 016°15'0 0.0
2017-Sep-25 10:30N 28°28' W 016°15'0 0.0
2017-Sep-25 10:00N 28°28' W 016°15'0 0.0
2017-Sep-25 09:30N 28°28' W 016°15'0 0.0
2017-Sep-25 09:00N 28°28' W 016°15'0 0.0
2017-Sep-25 08:30N 28°28' W 016°15'0 0.0
2017-Sep-25 08:00N 28°28' W 016°15'0 0.0
2017-Sep-25 07:30N 28°28' W 016°15'0 0.0
2017-Sep-25 07:00N 28°28' W 016°15'0 0.0
2017-Sep-25 06:30N 28°28' W 016°15'0 0.0
2017-Sep-25 06:00N 28°28' W 016°15'0 0.0
2017-Sep-25 05:31N 28°28' W 016°15'0 0.0
2017-Sep-25 05:00N 28°28' W 016°15'0 0.0
2017-Sep-25 04:31N 28°28' W 016°15'0 0.0
2017-Sep-25 04:00N 28°28' W 016°15'0 0.0
2017-Sep-25 03:30N 28°28' W 016°15'0 0.0
2017-Sep-25 03:00N 28°28' W 016°15'0 0.0
2017-Sep-25 02:30N 28°28' W 016°15'0 0.0
2017-Sep-25 02:00N 28°28' W 016°15'0 0.0
2017-Sep-25 01:30N 28°28' W 016°15'0 0.0
2017-Sep-25 01:00N 28°28' W 016°15'0 0.0
2017-Sep-25 00:30N 28°28' W 016°15'0 0.1
2017-Sep-25 00:00N 28°28' W 016°15'511.0
2017-Sep-24 23:30N 28°27' W 016°09'1223.9
2017-Sep-24 23:00N 28°22' W 015°56'1223.4
2017-Sep-24 22:31N 28°18' W 015°44'1122.9
2017-Sep-24 22:01N 28°14' W 015°31'917.2
2017-Sep-24 21:30N 28°09' W 015°24'1 1.2
2017-Sep-24 21:00N 28°10' W 015°24'0 0.0
2017-Sep-24 20:30N 28°10' W 015°24'0 0.0
2017-Sep-24 20:00N 28°10' W 015°24'0 0.8
2017-Sep-24 19:31N 28°09' W 015°24'917.4
2017-Sep-24 19:01N 28°13' W 015°15'1223.2
2017-Sep-24 18:30N 28°18' W 015°03'1223.4
2017-Sep-24 18:00N 28°24' W 014°52'1323.3
2017-Sep-24 17:28N 28°29' W 014°39'1123.5
2017-Sep-24 17:00N 28°34' W 014°28'1223.5
2017-Sep-24 16:30N 28°40' W 014°16'1122.9
2017-Sep-24 16:01N 28°45' W 014°04'1122.3
2017-Sep-24 15:30N 28°48' W 013°52'1223.5
2017-Sep-24 15:01N 28°53' W 013°40'917.9
2017-Sep-24 14:30N 28°58' W 013°32'0 0.2
2017-Sep-24 14:00N 28°58' W 013°32'0 0.0
2017-Sep-24 13:30N 28°58' W 013°32'3 5.5
2017-Sep-24 13:00N 28°59' W 013°29'1223.9
2017-Sep-24 12:30N 29°09' W 013°21'1123.0
2017-Sep-24 12:01N 29°18' W 013°13'1223.1
2017-Sep-24 11:29N 29°28' W 013°05'1123.3
2017-Sep-24 11:00N 29°37' W 012°57'1323.5
2017-Sep-24 10:27N 29°48' W 012°49'1123.5
2017-Sep-24 10:00N 29°56' W 012°42'1223.5
2017-Sep-24 09:30N 30°06' W 012°35'1223.6
2017-Sep-24 08:59N 30°16' W 012°27'1123.3
2017-Sep-24 08:31N 30°26' W 012°20'1223.1
2017-Sep-24 08:00N 30°35' W 012°12'1223.1
2017-Sep-24 07:30N 30°45' W 012°05'1423.1
2017-Sep-24 06:54N 30°56' W 011°55'1222.7
2017-Sep-24 06:21N 31°07' W 011°48'822.9
2017-Sep-24 06:01N 31°13' W 011°42'1223.3
2017-Sep-24 05:30N 31°23' W 011°34'1223.9
2017-Sep-24 05:01N 31°32' W 011°26'1223.9
2017-Sep-24 04:30N 31°42' W 011°18'1223.4
2017-Sep-24 04:00N 31°52' W 011°10'1223.5
2017-Sep-24 03:31N 32°01' W 011°03'1523.2
2017-Sep-24 02:53N 32°14' W 010°53'1923.2
2017-Sep-24 02:02N 32°30' W 010°40'123.4
2017-Sep-24 02:00N 32°31' W 010°40'1123.2
2017-Sep-24 01:31N 32°40' W 010°32'  
2017-Sep-21 13:14N 29°12' W 015°23'623.2
2017-Sep-21 12:58N 29°08' W 015°28'1123.3
2017-Sep-21 12:30N 28°60' W 015°36'1223.2
2017-Sep-21 12:00N 28°51' W 015°45'1223.4
2017-Sep-21 11:30N 28°42' W 015°54'1223.3
2017-Sep-21 11:01N 28°34' W 016°03'1121.1
2017-Sep-21 10:30N 28°29' W 016°14'1 1.9
2017-Sep-21 10:00N 28°28' W 016°15'0 0.0
2017-Sep-21 09:30N 28°28' W 016°15'1 1.4
2017-Sep-21 08:59N 28°29' W 016°14'1020.9
2017-Sep-21 08:31N 28°25' W 016°04'1223.1
2017-Sep-21 08:01N 28°21' W 015°52'1223.4
2017-Sep-21 07:31N 28°17' W 015°39'1223.2
2017-Sep-21 07:00N 28°13' W 015°26'4 7.9
2017-Sep-21 06:30N 28°10' W 015°24'0 0.0
2017-Sep-21 06:00N 28°10' W 015°24'0 0.0
2017-Sep-21 05:30N 28°10' W 015°24'0 0.0
2017-Sep-21 05:00N 28°10' W 015°24'0 0.0
2017-Sep-21 04:30N 28°10' W 015°24'0 0.0
2017-Sep-21 04:00N 28°10' W 015°24'0 0.0
2017-Sep-21 03:30N 28°10' W 015°24'0 0.0
2017-Sep-21 03:00N 28°10' W 015°24'0 0.0
2017-Sep-21 02:30N 28°10' W 015°24'0 0.0
2017-Sep-21 02:00N 28°10' W 015°24'0 0.0
2017-Sep-21 01:30N 28°10' W 015°24'0 0.0
2017-Sep-21 01:00N 28°10' W 015°24'0 0.0
2017-Sep-21 00:30N 28°10' W 015°24'0 0.0
2017-Sep-21 00:00N 28°10' W 015°24'0 0.0
2017-Sep-20 23:30N 28°10' W 015°24'0 0.0
2017-Sep-20 23:00N 28°10' W 015°24'0 0.0
2017-Sep-20 22:30N 28°10' W 015°24'0 0.0
2017-Sep-20 22:00N 28°10' W 015°24'0 0.0
2017-Sep-20 21:30N 28°10' W 015°24'0 0.0
2017-Sep-20 21:00N 28°10' W 015°24'0 0.0
2017-Sep-20 20:30N 28°10' W 015°24'0 0.0
2017-Sep-20 20:00N 28°10' W 015°24'0 0.0
2017-Sep-20 19:30N 28°10' W 015°24'0 0.0
2017-Sep-20 19:00N 28°10' W 015°24'0 0.0
2017-Sep-20 18:30N 28°10' W 015°24'0 0.0
2017-Sep-20 18:00N 28°10' W 015°24'0 0.0
2017-Sep-20 17:30N 28°10' W 015°24'0 0.0
2017-Sep-20 17:00N 28°10' W 015°24'0 0.0
2017-Sep-20 16:30N 28°10' W 015°24'0 0.0
2017-Sep-20 16:00N 28°10' W 015°24'0 0.0
2017-Sep-20 15:30N 28°10' W 015°24'1 2.6
2017-Sep-20 15:00N 28°09' W 015°23'2121.1
2017-Sep-20 14:01N 28°19' W 015°02'1223.9
2017-Sep-20 13:31N 28°24' W 014°50'1224.1
2017-Sep-20 13:00N 28°30' W 014°38'1223.9
2017-Sep-20 12:30N 28°35' W 014°26'1223.8
2017-Sep-20 12:00N 28°41' W 014°14'1223.5
2017-Sep-20 11:30N 28°46' W 014°02'1223.7
2017-Sep-20 11:01N 28°49' W 013°49'1122.3
2017-Sep-20 10:31N 28°54' W 013°37'713.1
2017-Sep-20 10:00N 28°58' W 013°32'0 0.0
2017-Sep-20 09:30N 28°58' W 013°32'0 0.0
2017-Sep-20 09:00N 28°58' W 013°32'0 0.0
2017-Sep-20 08:30N 28°58' W 013°32'0 0.0
2017-Sep-20 07:59N 28°58' W 013°32'0 0.0
2017-Sep-20 07:24N 28°58' W 013°32'0 0.0
2017-Sep-20 06:59N 28°58' W 013°32'0 0.0
2017-Sep-20 06:30N 28°58' W 013°32'0 0.0
2017-Sep-20 05:59N 28°58' W 013°32'0 0.1
2017-Sep-20 05:30N 28°58' W 013°32'4 7.8
2017-Sep-20 05:00N 28°55' W 013°35'918.0
2017-Sep-20 04:31N 28°50' W 013°43'918.7
2017-Sep-20 04:01N 28°48' W 013°53'918.5
2017-Sep-20 03:31N 28°46' W 014°04'917.2
2017-Sep-20 03:01N 28°41' W 014°12'918.0
2017-Sep-20 02:30N 28°37' W 014°21'918.1
2017-Sep-20 02:01N 28°33' W 014°30'918.1
2017-Sep-20 01:30N 28°29' W 014°39'918.0
2017-Sep-20 01:00N 28°25' W 014°49'918.2
2017-Sep-20 00:30N 28°20' W 014°58'917.9
2017-Sep-20 00:00N 28°16' W 015°07'918.4
2017-Sep-19 23:30N 28°12' W 015°16'815.1
2017-Sep-19 23:00N 28°09' W 015°24'0 0.9
2017-Sep-19 22:30N 28°10' W 015°24'0 0.0
2017-Sep-19 22:00N 28°10' W 015°24'0 0.0
2017-Sep-19 21:30N 28°10' W 015°24'0 0.0
2017-Sep-19 21:00N 28°10' W 015°24'0 0.0
2017-Sep-19 20:30N 28°10' W 015°24'0 0.0
2017-Sep-19 20:00N 28°10' W 015°24'0 0.0
2017-Sep-19 19:30N 28°10' W 015°24'0 0.0
2017-Sep-19 19:00N 28°10' W 015°24'0 0.0
2017-Sep-19 18:30N 28°10' W 015°24'0 0.0
2017-Sep-19 18:00N 28°10' W 015°24'0 0.0
2017-Sep-19 17:30N 28°10' W 015°24'0 0.0
2017-Sep-19 17:00N 28°10' W 015°24'0 0.0
2017-Sep-19 16:30N 28°10' W 015°24'0 0.0
2017-Sep-19 16:00N 28°10' W 015°24'2 5.0
2017-Sep-19 15:30N 28°10' W 015°21'1121.2
2017-Sep-19 15:00N 28°15' W 015°11'1121.2
2017-Sep-19 14:30N 28°20' W 014°60'1121.0
2017-Sep-19 14:00N 28°25' W 014°49'1121.2
2017-Sep-19 13:31N 28°29' W 014°38'1121.2
2017-Sep-19 13:01N 28°34' W 014°28'1121.1
2017-Sep-19 12:31N 28°39' W 014°17'1021.0
2017-Sep-19 12:01N 28°44' W 014°06'1020.3
2017-Sep-19 11:31N 28°47' W 013°56'1121.1
2017-Sep-19 11:00N 28°51' W 013°44'1121.1
2017-Sep-19 10:31N 28°56' W 013°34'3 5.9
2017-Sep-19 10:00N 28°58' W 013°32'0 0.0
2017-Sep-19 09:30N 28°58' W 013°32'0 0.0
2017-Sep-19 09:00N 28°58' W 013°32'0 0.0
2017-Sep-19 08:30N 28°58' W 013°32'0 0.0
2017-Sep-19 08:00N 28°58' W 013°32'0 0.0
2017-Sep-19 07:31N 28°58' W 013°32'0 0.0
2017-Sep-19 07:00N 28°58' W 013°32'0 0.0
2017-Sep-19 06:30N 28°58' W 013°32'0 0.0
2017-Sep-19 06:00N 28°58' W 013°32'0 0.3
2017-Sep-19 05:30N 28°58' W 013°32'5 9.2
2017-Sep-19 05:01N 28°55' W 013°35'918.8
2017-Sep-19 04:31N 28°50' W 013°45'918.8
2017-Sep-19 04:01N 28°48' W 013°55'918.1
2017-Sep-19 03:30N 28°48' W 014°05'917.2
2017-Sep-19 03:00N 28°42' W 014°12'918.9
2017-Sep-19 02:30N 28°37' W 014°21'918.7
2017-Sep-19 02:00N 28°33' W 014°31'918.7
2017-Sep-19 01:30N 28°29' W 014°40'918.4
2017-Sep-19 01:00N 28°25' W 014°49'918.2
2017-Sep-19 00:30N 28°21' W 014°59'918.2
2017-Sep-19 00:00N 28°17' W 015°08'918.7
2017-Sep-18 23:30N 28°13' W 015°18'713.2
2017-Sep-18 23:00N 28°09' W 015°24'0 0.5
2017-Sep-18 22:30N 28°10' W 015°24'0 0.0
2017-Sep-18 22:00N 28°10' W 015°24'0 0.0
2017-Sep-18 21:30N 28°10' W 015°24'0 0.0
2017-Sep-18 21:00N 28°10' W 015°24'0 0.0
2017-Sep-18 20:30N 28°10' W 015°24'0 0.0
2017-Sep-18 20:00N 28°10' W 015°24'0 0.0
2017-Sep-18 19:30N 28°10' W 015°24'0 0.0
2017-Sep-18 19:00N 28°10' W 015°24'0 0.0
2017-Sep-18 18:30N 28°10' W 015°24'1 1.1
2017-Sep-18 18:00N 28°09' W 015°24'612.6
2017-Sep-18 17:30N 28°14' W 015°29'1122.2
2017-Sep-18 17:00N 28°17' W 015°41'1121.9
2017-Sep-18 16:30N 28°21' W 015°53'1122.1
2017-Sep-18 16:00N 28°25' W 016°04'919.0
2017-Sep-18 15:30N 28°29' W 016°14'1 1.5
2017-Sep-18 15:00N 28°28' W 016°15'0 0.0
2017-Sep-18 14:30N 28°28' W 016°15'0 0.0
2017-Sep-18 14:00N 28°28' W 016°15'0 0.0
2017-Sep-18 13:30N 28°28' W 016°15'0 0.0
2017-Sep-18 13:00N 28°28' W 016°15'0 0.3
2017-Sep-18 12:31N 28°28' W 016°15'3 6.0
2017-Sep-18 12:00N 28°26' W 016°12'815.9
2017-Sep-18 11:30N 28°31' W 016°04'713.6
2017-Sep-18 11:00N 28°35' W 015°59'4 8.3
2017-Sep-18 10:30N 28°32' W 016°02'714.0
2017-Sep-18 10:00N 28°28' W 016°08'611.4
2017-Sep-18 09:30N 28°28' W 016°15'0 0.0
2017-Sep-18 09:00N 28°28' W 016°15'0 0.0
2017-Sep-18 08:30N 28°28' W 016°15'0 0.0
2017-Sep-18 08:00N 28°28' W 016°15'0 0.0
2017-Sep-18 07:30N 28°28' W 016°15'0 0.0
2017-Sep-18 07:00N 28°28' W 016°15'0 0.0
2017-Sep-18 06:30N 28°28' W 016°15'0 0.0
2017-Sep-18 06:00N 28°28' W 016°15'0 0.0
2017-Sep-18 05:31N 28°28' W 016°15'0 0.0
2017-Sep-18 05:00N 28°28' W 016°15'0 0.0
2017-Sep-18 04:30N 28°28' W 016°15'0 0.0
2017-Sep-18 04:00N 28°28' W 016°15'0 0.0
2017-Sep-18 03:30N 28°28' W 016°15'0 0.0
2017-Sep-18 03:00N 28°28' W 016°15'0 0.0
2017-Sep-18 02:31N 28°28' W 016°15'0 0.0
2017-Sep-18 02:00N 28°28' W 016°15'0 0.0
2017-Sep-18 01:31N 28°28' W 016°15'0 0.1
2017-Sep-18 01:01N 28°28' W 016°15'3 6.5
2017-Sep-18 00:30N 28°28' W 016°11'1020.8
2017-Sep-18 00:00N 28°24' W 016°00'1223.7
2017-Sep-17 23:30N 28°20' W 015°47'1223.6
2017-Sep-17 23:00N 28°16' W 015°35'1223.2
2017-Sep-17 22:30N 28°11' W 015°23'2 3.1
2017-Sep-17 22:00N 28°10' W 015°24'0 0.0
2017-Sep-17 21:30N 28°10' W 015°24'0 0.0
2017-Sep-17 21:00N 28°10' W 015°24'0 0.0
2017-Sep-17 20:30N 28°10' W 015°24'1 1.3
2017-Sep-17 20:01N 28°09' W 015°24'1121.7
2017-Sep-17 19:31N 28°14' W 015°13'1223.9
2017-Sep-17 19:01N 28°19' W 015°01'1224.3
2017-Sep-17 18:31N 28°25' W 014°49'1224.0
2017-Sep-17 18:00N 28°31' W 014°36'1223.8
2017-Sep-17 17:30N 28°36' W 014°24'1223.7
2017-Sep-17 17:00N 28°41' W 014°12'1223.7
2017-Sep-17 16:31N 28°46' W 014°00'1223.7
2017-Sep-17 16:01N 28°49' W 013°47'1224.7
2017-Sep-17 15:30N 28°55' W 013°35'4 7.8
2017-Sep-17 15:00N 28°58' W 013°32'0 0.0
2017-Sep-17 14:30N 28°58' W 013°32'0 0.1
2017-Sep-17 14:00N 28°58' W 013°32'4 7.1
2017-Sep-17 13:30N 28°60' W 013°28'1223.6
2017-Sep-17 13:00N 29°09' W 013°20'1223.7
2017-Sep-17 12:30N 29°19' W 013°12'1223.6
2017-Sep-17 12:01N 29°29' W 013°05'2323.3
2017-Sep-17 11:02N 29°47' W 012°50'4623.1
2017-Sep-17 09:03N 30°25' W 012°20'123.5
2017-Sep-17 09:01N 30°26' W 012°19'39423.2
2017-Sep-16 16:02N 35°51' W 007°54'223.6
2017-Sep-16 15:58N 35°53' W 007°53'1123.3
2017-Sep-16 15:30N 36°02' W 007°45'1823.4
2017-Sep-16 14:44N 36°17' W 007°32'523.3
2017-Sep-16 14:30N 36°21' W 007°28'  
Track history (hours):
 
Tides and Currents Weather Stations Pressure Air Temp Water Temp Dewpoint Dewpoint Depression Visibility Wind Speed Wind Dir Waves Ship Positions

Volcan Del Teide

Last reported at 2017-Sep-25 19:00 UTC. Time now 2017-Sep-25 19:14 UTC.
Position N 28°10' W 015°24'.

Length 175 m; draft 6.5 m.

Type: Passenger vessel. MMSI: 225416000.

Date/timePositionNaut miles runAvg speedWind from/ knotsBaromVisibWave heightAir tempDewpointWater temp
2017-Sep-25 19:00N 28°10' W 015°24'0 0.0
2017-Sep-25 18:30N 28°10' W 015°24'0 0.0
2017-Sep-25 18:00N 28°10' W 015°24'1 1.4
2017-Sep-25 17:30N 28°09' W 015°24'918.7
2017-Sep-25 17:01N 28°14' W 015°32'1223.2
2017-Sep-25 16:30N 28°19' W 015°45'1123.0
2017-Sep-25 16:00N 28°23' W 015°57'1223.3
2017-Sep-25 15:30N 28°27' W 016°09'510.0
2017-Sep-25 15:00N 28°28' W 016°15'0 0.0
2017-Sep-25 14:31N 28°28' W 016°15'0 0.0
2017-Sep-25 14:00N 28°28' W 016°15'0 0.0
2017-Sep-25 13:30N 28°28' W 016°15'0 0.0
2017-Sep-25 13:00N 28°28' W 016°15'0 0.0
2017-Sep-25 12:30N 28°28' W 016°15'0 0.0
2017-Sep-25 12:00N 28°28' W 016°15'0 0.0
2017-Sep-25 11:30N 28°28' W 016°15'0 0.0
2017-Sep-25 11:00N 28°28' W 016°15'0 0.0
2017-Sep-25 10:30N 28°28' W 016°15'0 0.0
2017-Sep-25 10:00N 28°28' W 016°15'0 0.0
2017-Sep-25 09:30N 28°28' W 016°15'0 0.0
2017-Sep-25 09:00N 28°28' W 016°15'0 0.0
2017-Sep-25 08:30N 28°28' W 016°15'0 0.0
2017-Sep-25 08:00N 28°28' W 016°15'0 0.0
2017-Sep-25 07:30N 28°28' W 016°15'0 0.0
2017-Sep-25 07:00N 28°28' W 016°15'0 0.0
2017-Sep-25 06:30N 28°28' W 016°15'0 0.0
2017-Sep-25 06:00N 28°28' W 016°15'0 0.0
2017-Sep-25 05:31N 28°28' W 016°15'0 0.0
2017-Sep-25 05:00N 28°28' W 016°15'0 0.0
2017-Sep-25 04:31N 28°28' W 016°15'0 0.0
2017-Sep-25 04:00N 28°28' W 016°15'0 0.0
2017-Sep-25 03:30N 28°28' W 016°15'0 0.0
2017-Sep-25 03:00N 28°28' W 016°15'0 0.0
2017-Sep-25 02:30N 28°28' W 016°15'0 0.0
2017-Sep-25 02:00N 28°28' W 016°15'0 0.0
2017-Sep-25 01:30N 28°28' W 016°15'0 0.0
2017-Sep-25 01:00N 28°28' W 016°15'0 0.0
2017-Sep-25 00:30N 28°28' W 016°15'0 0.1
2017-Sep-25 00:00N 28°28' W 016°15'511.0
2017-Sep-24 23:30N 28°27' W 016°09'1223.9
2017-Sep-24 23:00N 28°22' W 015°56'1223.4
2017-Sep-24 22:31N 28°18' W 015°44'1122.9
2017-Sep-24 22:01N 28°14' W 015°31'917.2
2017-Sep-24 21:30N 28°09' W 015°24'1 1.2
2017-Sep-24 21:00N 28°10' W 015°24'0 0.0
2017-Sep-24 20:30N 28°10' W 015°24'0 0.0
2017-Sep-24 20:00N 28°10' W 015°24'0 0.8
2017-Sep-24 19:31N 28°09' W 015°24'917.4
2017-Sep-24 19:01N 28°13' W 015°15'1223.2
2017-Sep-24 18:30N 28°18' W 015°03'1223.4
2017-Sep-24 18:00N 28°24' W 014°52'1323.3
2017-Sep-24 17:28N 28°29' W 014°39'1123.5
2017-Sep-24 17:00N 28°34' W 014°28'1223.5
2017-Sep-24 16:30N 28°40' W 014°16'1122.9
2017-Sep-24 16:01N 28°45' W 014°04'1122.3
2017-Sep-24 15:30N 28°48' W 013°52'1223.5
2017-Sep-24 15:01N 28°53' W 013°40'917.9
2017-Sep-24 14:30N 28°58' W 013°32'0 0.2
2017-Sep-24 14:00N 28°58' W 013°32'0 0.0
2017-Sep-24 13:30N 28°58' W 013°32'3 5.5
2017-Sep-24 13:00N 28°59' W 013°29'1223.9
2017-Sep-24 12:30N 29°09' W 013°21'1123.0
2017-Sep-24 12:01N 29°18' W 013°13'1223.1
2017-Sep-24 11:29N 29°28' W 013°05'1123.3
2017-Sep-24 11:00N 29°37' W 012°57'1323.5
2017-Sep-24 10:27N 29°48' W 012°49'1123.5
2017-Sep-24 10:00N 29°56' W 012°42'1223.5
2017-Sep-24 09:30N 30°06' W 012°35'1223.6
2017-Sep-24 08:59N 30°16' W 012°27'1123.3
2017-Sep-24 08:31N 30°26' W 012°20'1223.1
2017-Sep-24 08:00N 30°35' W 012°12'1223.1
2017-Sep-24 07:30N 30°45' W 012°05'1423.1
2017-Sep-24 06:54N 30°56' W 011°55'1222.7
2017-Sep-24 06:21N 31°07' W 011°48'822.9
2017-Sep-24 06:01N 31°13' W 011°42'1223.3
2017-Sep-24 05:30N 31°23' W 011°34'1223.9
2017-Sep-24 05:01N 31°32' W 011°26'1223.9
2017-Sep-24 04:30N 31°42' W 011°18'1223.4
2017-Sep-24 04:00N 31°52' W 011°10'1223.5
2017-Sep-24 03:31N 32°01' W 011°03'1523.2
2017-Sep-24 02:53N 32°14' W 010°53'1923.2
2017-Sep-24 02:02N 32°30' W 010°40'123.4
2017-Sep-24 02:00N 32°31' W 010°40'1123.2
2017-Sep-24 01:31N 32°40' W 010°32'  
2017-Sep-21 13:14N 29°12' W 015°23'623.2
2017-Sep-21 12:58N 29°08' W 015°28'1123.3
2017-Sep-21 12:30N 28°60' W 015°36'1223.2
2017-Sep-21 12:00N 28°51' W 015°45'1223.4
2017-Sep-21 11:30N 28°42' W 015°54'1223.3
2017-Sep-21 11:01N 28°34' W 016°03'1121.1
2017-Sep-21 10:30N 28°29' W 016°14'1 1.9
2017-Sep-21 10:00N 28°28' W 016°15'0 0.0
2017-Sep-21 09:30N 28°28' W 016°15'1 1.4
2017-Sep-21 08:59N 28°29' W 016°14'1020.9
2017-Sep-21 08:31N 28°25' W 016°04'1223.1
2017-Sep-21 08:01N 28°21' W 015°52'1223.4
2017-Sep-21 07:31N 28°17' W 015°39'1223.2
2017-Sep-21 07:00N 28°13' W 015°26'4 7.9
2017-Sep-21 06:30N 28°10' W 015°24'0 0.0
2017-Sep-21 06:00N 28°10' W 015°24'0 0.0
2017-Sep-21 05:30N 28°10' W 015°24'0 0.0
2017-Sep-21 05:00N 28°10' W 015°24'0 0.0
2017-Sep-21 04:30N 28°10' W 015°24'0 0.0
2017-Sep-21 04:00N 28°10' W 015°24'0 0.0
2017-Sep-21 03:30N 28°10' W 015°24'0 0.0
2017-Sep-21 03:00N 28°10' W 015°24'0 0.0
2017-Sep-21 02:30N 28°10' W 015°24'0 0.0
2017-Sep-21 02:00N 28°10' W 015°24'0 0.0
2017-Sep-21 01:30N 28°10' W 015°24'0 0.0
2017-Sep-21 01:00N 28°10' W 015°24'0 0.0
2017-Sep-21 00:30N 28°10' W 015°24'0 0.0
2017-Sep-21 00:00N 28°10' W 015°24'0 0.0
2017-Sep-20 23:30N 28°10' W 015°24'0 0.0
2017-Sep-20 23:00N 28°10' W 015°24'0 0.0
2017-Sep-20 22:30N 28°10' W 015°24'0 0.0
2017-Sep-20 22:00N 28°10' W 015°24'0 0.0
2017-Sep-20 21:30N 28°10' W 015°24'0 0.0
2017-Sep-20 21:00N 28°10' W 015°24'0 0.0
2017-Sep-20 20:30N 28°10' W 015°24'0 0.0
2017-Sep-20 20:00N 28°10' W 015°24'0 0.0
2017-Sep-20 19:30N 28°10' W 015°24'0 0.0
2017-Sep-20 19:00N 28°10' W 015°24'0 0.0
2017-Sep-20 18:30N 28°10' W 015°24'0 0.0
2017-Sep-20 18:00N 28°10' W 015°24'0 0.0
2017-Sep-20 17:30N 28°10' W 015°24'0 0.0
2017-Sep-20 17:00N 28°10' W 015°24'0 0.0
2017-Sep-20 16:30N 28°10' W 015°24'0 0.0
2017-Sep-20 16:00N 28°10' W 015°24'0 0.0
2017-Sep-20 15:30N 28°10' W 015°24'1 2.6
2017-Sep-20 15:00N 28°09' W 015°23'2121.1
2017-Sep-20 14:01N 28°19' W 015°02'1223.9
2017-Sep-20 13:31N 28°24' W 014°50'1224.1
2017-Sep-20 13:00N 28°30' W 014°38'1223.9
2017-Sep-20 12:30N 28°35' W 014°26'1223.8
2017-Sep-20 12:00N 28°41' W 014°14'1223.5
2017-Sep-20 11:30N 28°46' W 014°02'1223.7
2017-Sep-20 11:01N 28°49' W 013°49'1122.3
2017-Sep-20 10:31N 28°54' W 013°37'713.1
2017-Sep-20 10:00N 28°58' W 013°32'0 0.0
2017-Sep-20 09:30N 28°58' W 013°32'0 0.0
2017-Sep-20 09:00N 28°58' W 013°32'0 0.0
2017-Sep-20 08:30N 28°58' W 013°32'0 0.0
2017-Sep-20 07:59N 28°58' W 013°32'0 0.0
2017-Sep-20 07:24N 28°58' W 013°32'0 0.0
2017-Sep-20 06:59N 28°58' W 013°32'0 0.0
2017-Sep-20 06:30N 28°58' W 013°32'0 0.0
2017-Sep-20 05:59N 28°58' W 013°32'0 0.1
2017-Sep-20 05:30N 28°58' W 013°32'4 7.8
2017-Sep-20 05:00N 28°55' W 013°35'918.0
2017-Sep-20 04:31N 28°50' W 013°43'918.7
2017-Sep-20 04:01N 28°48' W 013°53'918.5
2017-Sep-20 03:31N 28°46' W 014°04'917.2
2017-Sep-20 03:01N 28°41' W 014°12'918.0
2017-Sep-20 02:30N 28°37' W 014°21'918.1
2017-Sep-20 02:01N 28°33' W 014°30'918.1
2017-Sep-20 01:30N 28°29' W 014°39'918.0
2017-Sep-20 01:00N 28°25' W 014°49'918.2
2017-Sep-20 00:30N 28°20' W 014°58'917.9
2017-Sep-20 00:00N 28°16' W 015°07'918.4
2017-Sep-19 23:30N 28°12' W 015°16'815.1
2017-Sep-19 23:00N 28°09' W 015°24'0 0.9
2017-Sep-19 22:30N 28°10' W 015°24'0 0.0
2017-Sep-19 22:00N 28°10' W 015°24'0 0.0
2017-Sep-19 21:30N 28°10' W 015°24'0 0.0
2017-Sep-19 21:00N 28°10' W 015°24'0 0.0
2017-Sep-19 20:30N 28°10' W 015°24'0 0.0
2017-Sep-19 20:00N 28°10' W 015°24'0 0.0
2017-Sep-19 19:30N 28°10' W 015°24'0 0.0
2017-Sep-19 19:00N 28°10' W 015°24'0 0.0
2017-Sep-19 18:30N 28°10' W 015°24'0 0.0
2017-Sep-19 18:00N 28°10' W 015°24'0 0.0
2017-Sep-19 17:30N 28°10' W 015°24'0 0.0
2017-Sep-19 17:00N 28°10' W 015°24'0 0.0
2017-Sep-19 16:30N 28°10' W 015°24'0 0.0
2017-Sep-19 16:00N 28°10' W 015°24'2 5.0
2017-Sep-19 15:30N 28°10' W 015°21'1121.2
2017-Sep-19 15:00N 28°15' W 015°11'1121.2
2017-Sep-19 14:30N 28°20' W 014°60'1121.0
2017-Sep-19 14:00N 28°25' W 014°49'1121.2
2017-Sep-19 13:31N 28°29' W 014°38'1121.2
2017-Sep-19 13:01N 28°34' W 014°28'1121.1
2017-Sep-19 12:31N 28°39' W 014°17'1021.0
2017-Sep-19 12:01N 28°44' W 014°06'1020.3
2017-Sep-19 11:31N 28°47' W 013°56'1121.1
2017-Sep-19 11:00N 28°51' W 013°44'1121.1
2017-Sep-19 10:31N 28°56' W 013°34'3 5.9
2017-Sep-19 10:00N 28°58' W 013°32'0 0.0
2017-Sep-19 09:30N 28°58' W 013°32'0 0.0
2017-Sep-19 09:00N 28°58' W 013°32'0 0.0
2017-Sep-19 08:30N 28°58' W 013°32'0 0.0
2017-Sep-19 08:00N 28°58' W 013°32'0 0.0
2017-Sep-19 07:31N 28°58' W 013°32'0 0.0
2017-Sep-19 07:00N 28°58' W 013°32'0 0.0
2017-Sep-19 06:30N 28°58' W 013°32'0 0.0
2017-Sep-19 06:00N 28°58' W 013°32'0 0.3
2017-Sep-19 05:30N 28°58' W 013°32'5 9.2
2017-Sep-19 05:01N 28°55' W 013°35'918.8
2017-Sep-19 04:31N 28°50' W 013°45'918.8
2017-Sep-19 04:01N 28°48' W 013°55'918.1
2017-Sep-19 03:30N 28°48' W 014°05'917.2
2017-Sep-19 03:00N 28°42' W 014°12'918.9
2017-Sep-19 02:30N 28°37' W 014°21'918.7
2017-Sep-19 02:00N 28°33' W 014°31'918.7
2017-Sep-19 01:30N 28°29' W 014°40'918.4
2017-Sep-19 01:00N 28°25' W 014°49'918.2
2017-Sep-19 00:30N 28°21' W 014°59'918.2
2017-Sep-19 00:00N 28°17' W 015°08'918.7
2017-Sep-18 23:30N 28°13' W 015°18'713.2
2017-Sep-18 23:00N 28°09' W 015°24'0 0.5
2017-Sep-18 22:30N 28°10' W 015°24'0 0.0
2017-Sep-18 22:00N 28°10' W 015°24'0 0.0
2017-Sep-18 21:30N 28°10' W 015°24'0 0.0
2017-Sep-18 21:00N 28°10' W 015°24'0 0.0
2017-Sep-18 20:30N 28°10' W 015°24'0 0.0
2017-Sep-18 20:00N 28°10' W 015°24'0 0.0
2017-Sep-18 19:30N 28°10' W 015°24'0 0.0
2017-Sep-18 19:00N 28°10' W 015°24'0 0.0
2017-Sep-18 18:30N 28°10' W 015°24'1 1.1
2017-Sep-18 18:00N 28°09' W 015°24'612.6
2017-Sep-18 17:30N 28°14' W 015°29'1122.2
2017-Sep-18 17:00N 28°17' W 015°41'1121.9
2017-Sep-18 16:30N 28°21' W 015°53'1122.1
2017-Sep-18 16:00N 28°25' W 016°04'919.0
2017-Sep-18 15:30N 28°29' W 016°14'1 1.5
2017-Sep-18 15:00N 28°28' W 016°15'0 0.0
2017-Sep-18 14:30N 28°28' W 016°15'0 0.0
2017-Sep-18 14:00N 28°28' W 016°15'0 0.0
2017-Sep-18 13:30N 28°28' W 016°15'0 0.0
2017-Sep-18 13:00N 28°28' W 016°15'0 0.3
2017-Sep-18 12:31N 28°28' W 016°15'3 6.0
2017-Sep-18 12:00N 28°26' W 016°12'815.9
2017-Sep-18 11:30N 28°31' W 016°04'713.6
2017-Sep-18 11:00N 28°35' W 015°59'4 8.3
2017-Sep-18 10:30N 28°32' W 016°02'714.0
2017-Sep-18 10:00N 28°28' W 016°08'611.4
2017-Sep-18 09:30N 28°28' W 016°15'0 0.0
2017-Sep-18 09:00N 28°28' W 016°15'0 0.0
2017-Sep-18 08:30N 28°28' W 016°15'0 0.0
2017-Sep-18 08:00N 28°28' W 016°15'0 0.0
2017-Sep-18 07:30N 28°28' W 016°15'0 0.0
2017-Sep-18 07:00N 28°28' W 016°15'0 0.0
2017-Sep-18 06:30N 28°28' W 016°15'0 0.0
2017-Sep-18 06:00N 28°28' W 016°15'0 0.0
2017-Sep-18 05:31N 28°28' W 016°15'0 0.0
2017-Sep-18 05:00N 28°28' W 016°15'0 0.0
2017-Sep-18 04:30N 28°28' W 016°15'0 0.0
2017-Sep-18 04:00N 28°28' W 016°15'0 0.0
2017-Sep-18 03:30N 28°28' W 016°15'0 0.0
2017-Sep-18 03:00N 28°28' W 016°15'0 0.0
2017-Sep-18 02:31N 28°28' W 016°15'0 0.0
2017-Sep-18 02:00N 28°28' W 016°15'0 0.0
2017-Sep-18 01:31N 28°28' W 016°15'0 0.1
2017-Sep-18 01:01N 28°28' W 016°15'3 6.5
2017-Sep-18 00:30N 28°28' W 016°11'1020.8
2017-Sep-18 00:00N 28°24' W 016°00'1223.7
2017-Sep-17 23:30N 28°20' W 015°47'1223.6
2017-Sep-17 23:00N 28°16' W 015°35'1223.2
2017-Sep-17 22:30N 28°11' W 015°23'2 3.1
2017-Sep-17 22:00N 28°10' W 015°24'0 0.0
2017-Sep-17 21:30N 28°10' W 015°24'0 0.0
2017-Sep-17 21:00N 28°10' W 015°24'0 0.0
2017-Sep-17 20:30N 28°10' W 015°24'1 1.3
2017-Sep-17 20:01N 28°09' W 015°24'1121.7
2017-Sep-17 19:31N 28°14' W 015°13'1223.9
2017-Sep-17 19:01N 28°19' W 015°01'1224.3
2017-Sep-17 18:31N 28°25' W 014°49'1224.0
2017-Sep-17 18:00N 28°31' W 014°36'1223.8
2017-Sep-17 17:30N 28°36' W 014°24'1223.7
2017-Sep-17 17:00N 28°41' W 014°12'1223.7
2017-Sep-17 16:31N 28°46' W 014°00'1223.7
2017-Sep-17 16:01N 28°49' W 013°47'1224.7
2017-Sep-17 15:30N 28°55' W 013°35'4 7.8
2017-Sep-17 15:00N 28°58' W 013°32'0 0.0
2017-Sep-17 14:30N 28°58' W 013°32'0 0.1
2017-Sep-17 14:00N 28°58' W 013°32'4 7.1
2017-Sep-17 13:30N 28°60' W 013°28'1223.6
2017-Sep-17 13:00N 29°09' W 013°20'1223.7
2017-Sep-17 12:30N 29°19' W 013°12'1223.6
2017-Sep-17 12:01N 29°29' W 013°05'2323.3
2017-Sep-17 11:02N 29°47' W 012°50'4623.1
2017-Sep-17 09:03N 30°25' W 012°20'123.5
2017-Sep-17 09:01N 30°26' W 012°19'39423.2
2017-Sep-16 16:02N 35°51' W 007°54'223.6
2017-Sep-16 15:58N 35°53' W 007°53'1123.3
2017-Sep-16 15:30N 36°02' W 007°45'1823.4
2017-Sep-16 14:44N 36°17' W 007°32'523.3
2017-Sep-16 14:30N 36°21' W 007°28'  

Dump ship's entire track history